Time;durP1;ratioP1;P1;durP2;ratioP2;P2;SDS_P1;SDS_P2;PMS_P1;PMS_P2;Temp;Humidity;BMP_temperature;BMP_pressure;BME280_temperature;BME280_humidity;BME280_pressure;Samples;Min_cycle;Max_cycle;Signal;HPM_P1;HPM_P2
2023/01/27 00:00:22;;;;;;;;;;;5.60;99.90;;;;;;4956443;28;19922;-84
2023/01/27 00:02:47;;;;;;;;;;;5.60;99.90;;;;;;4941824;29;20391;-84
2023/01/27 00:05:13;;;;;;;;;;;5.60;99.90;;;;;;4956039;29;19914;-83
2023/01/27 00:07:44;;;;;;;;;;;5.60;99.90;;;;;;4940521;29;20009;-84
2023/01/27 00:10:11;;;;;;;;;;;5.60;99.90;;;;;;4939167;29;19919;-82
2023/01/27 00:15:21;;;;;;;;;;;5.60;99.90;;;;;;4936017;29;19917;-81
2023/01/27 00:17:46;;;;;;;;;;;5.60;99.90;;;;;;4935549;29;20009;-82
2023/01/27 00:20:12;;;;;;;;;;;5.50;99.90;;;;;;4950420;28;19918;-82
2023/01/27 00:25:21;;;;;;;;;;;5.50;99.90;;;;;;4939336;29;19938;-82
2023/01/27 00:27:47;;;;;;;;;;;5.60;99.90;;;;;;4954051;29;19937;-82
2023/01/27 00:30:12;;;;;;;;;;;5.50;99.90;;;;;;4953927;28;19919;-83
2023/01/27 00:35:22;;;;;;;;;;;5.50;99.90;;;;;;4939459;29;19922;-82
2023/01/27 00:37:48;;;;;;;;;;;5.50;99.90;;;;;;4953659;29;20013;-81
2023/01/27 00:40:14;;;;;;;;;;;5.40;99.90;;;;;;4953856;28;20473;-82
2023/01/27 00:42:40;;;;;;;;;;;5.50;99.90;;;;;;4953554;29;19910;-82
2023/01/27 00:47:51;;;;;;;;;;;5.50;99.90;;;;;;4939364;29;19917;-81
2023/01/27 00:50:16;;;;;;;;;;;5.50;99.90;;;;;;4939101;29;19962;-82
2023/01/27 00:52:42;;;;;;;;;;;5.40;99.90;;;;;;4938911;29;19911;-82
2023/01/27 00:55:09;;;;;;;;;;;5.40;99.90;;;;;;4953483;29;19917;-82
2023/01/27 00:57:35;;;;;;;;;;;5.50;99.90;;;;;;4953634;29;20013;-81
2023/01/27 01:00:00;;;;;;;;;;;5.60;99.90;;;;;;4938427;29;20390;-82
2023/01/27 01:02:26;;;;;;;;;;;5.70;99.90;;;;;;4937267;29;19911;-82
2023/01/27 01:04:51;;;;;;;;;;;5.80;99.90;;;;;;4938872;29;19922;-82
2023/01/27 01:07:17;;;;;;;;;;;5.80;99.90;;;;;;4938396;29;19911;-81
2023/01/27 01:09:42;;;;;;;;;;;5.90;99.90;;;;;;4937126;29;20273;-82
2023/01/27 01:12:08;;;;;;;;;;;5.90;99.90;;;;;;4938334;29;19930;-82
2023/01/27 01:14:33;;;;;;;;;;;5.90;99.90;;;;;;4937225;29;19915;-83
2023/01/27 01:16:59;;;;;;;;;;;6.00;99.90;;;;;;4953154;29;20353;-82
2023/01/27 01:19:24;;;;;;;;;;;5.90;99.90;;;;;;4938308;29;19911;-82
2023/01/27 01:21:50;;;;;;;;;;;5.70;99.90;;;;;;4938271;29;19911;-82
2023/01/27 01:24:15;;;;;;;;;;;5.70;99.90;;;;;;4952999;29;20291;-82
2023/01/27 01:26:41;;;;;;;;;;;5.60;99.90;;;;;;4938005;29;20030;-82
2023/01/27 01:29:06;;;;;;;;;;;5.50;99.90;;;;;;4937042;29;19910;-82
2023/01/27 01:31:32;;;;;;;;;;;5.60;99.90;;;;;;4952015;28;20006;-82
2023/01/27 01:33:57;;;;;;;;;;;5.50;99.90;;;;;;4936532;29;19911;-83
2023/01/27 01:36:23;;;;;;;;;;;5.50;99.90;;;;;;4952412;29;20317;-83
2023/01/27 01:38:53;;;;;;;;;;;5.40;99.90;;;;;;4937484;29;19918;-83
2023/01/27 01:41:19;;;;;;;;;;;5.40;99.90;;;;;;4937478;29;20288;-82
2023/01/27 01:43:44;;;;;;;;;;;5.30;99.90;;;;;;4937805;29;19911;-83
2023/01/27 01:46:10;;;;;;;;;;;5.30;99.90;;;;;;4937747;29;19915;-82
2023/01/27 01:48:41;;;;;;;;;;;5.20;99.90;;;;;;4952284;29;19912;-81
2023/01/27 01:51:12;;;;;;;;;;;5.30;99.90;;;;;;4936047;29;19944;-82
2023/01/27 01:54:00;;;;;;;;;;;5.30;99.90;;;;;;4952052;29;20372;-82
2023/01/27 01:56:27;;;;;;;;;;;5.30;99.90;;;;;;4952464;29;19917;-82
2023/01/27 01:58:53;;;;;;;;;;;5.30;99.90;;;;;;4936057;29;19965;-81
2023/01/27 02:01:19;;;;;;;;;;;5.30;99.90;;;;;;4951954;29;20006;-81
2023/01/27 02:03:48;;;;;;;;;;;5.30;99.90;;;;;;4936076;29;19946;-82
2023/01/27 02:06:13;;;;;;;;;;;5.30;99.90;;;;;;4935984;29;19914;-82
2023/01/27 02:08:41;;;;;;;;;;;5.30;99.90;;;;;;4951815;29;19974;-81
2023/01/27 02:11:07;;;;;;;;;;;5.30;99.90;;;;;;4951615;28;19975;-82
2023/01/27 02:13:32;;;;;;;;;;;5.40;99.90;;;;;;4937141;29;20427;-81
2023/01/27 02:15:58;;;;;;;;;;;5.40;99.90;;;;;;4937070;29;19947;-82
2023/01/27 02:18:25;;;;;;;;;;;5.40;99.90;;;;;;4935781;29;19911;-82
2023/01/27 02:20:51;;;;;;;;;;;5.40;99.90;;;;;;4951553;28;19918;-81
2023/01/27 02:23:29;;;;;;;;;;;5.40;99.90;;;;;;4936933;29;20337;-81
2023/01/27 02:26:00;;;;;;;;;;;5.40;99.90;;;;;;4951809;29;20485;-80
2023/01/27 02:28:27;;;;;;;;;;;5.30;99.90;;;;;;4951647;29;20009;-82
2023/01/27 02:30:53;;;;;;;;;;;5.20;99.90;;;;;;4936749;29;19962;-81
2023/01/27 02:33:18;;;;;;;;;;;5.30;99.90;;;;;;4936779;29;20383;-82
2023/01/27 02:35:47;;;;;;;;;;;5.30;99.90;;;;;;4951604;29;19970;-82
2023/01/27 02:38:14;;;;;;;;;;;5.20;99.90;;;;;;4935393;29;19918;-82
2023/01/27 02:40:39;;;;;;;;;;;5.20;99.90;;;;;;4935404;29;19965;-82
2023/01/27 02:43:05;;;;;;;;;;;5.20;99.90;;;;;;4935931;29;19997;-81
2023/01/27 02:45:30;;;;;;;;;;;5.20;99.90;;;;;;4936807;29;19923;-82
2023/01/27 02:47:56;;;;;;;;;;;5.10;99.90;;;;;;4935279;29;19958;-82
2023/01/27 02:50:21;;;;;;;;;;;5.20;99.90;;;;;;4951339;28;19915;-82
2023/01/27 02:52:47;;;;;;;;;;;5.30;99.90;;;;;;4951477;29;20005;-82
2023/01/27 02:55:12;;;;;;;;;;;5.30;99.90;;;;;;4936802;29;20346;-82
2023/01/27 02:57:38;;;;;;;;;;;5.20;99.90;;;;;;4951108;29;19917;-82
2023/01/27 03:00:03;;;;;;;;;;;5.20;99.90;;;;;;4951090;28;20329;-82
2023/01/27 03:02:29;;;;;;;;;;;5.20;99.90;;;;;;4936459;29;19953;-82
2023/01/27 03:04:55;;;;;;;;;;;5.10;99.90;;;;;;4951107;29;19915;-82
2023/01/27 03:07:21;;;;;;;;;;;5.20;99.90;;;;;;4951177;29;19994;-82
2023/01/27 03:09:46;;;;;;;;;;;5.20;99.90;;;;;;4936174;29;19961;-82
2023/01/27 03:12:21;;;;;;;;;;;5.10;99.90;;;;;;4936611;29;19918;-81
2023/01/27 03:20:15;;;;;;;;;;;5.00;99.90;;;;;;4936410;29;19917;-82
2023/01/27 03:22:41;;;;;;;;;;;5.00;99.90;;;;;;4936081;29;19919;-82
2023/01/27 03:25:07;;;;;;;;;;;5.10;99.90;;;;;;4934881;29;20358;-82
2023/01/27 03:27:32;;;;;;;;;;;5.00;99.90;;;;;;4935013;29;19954;-81
2023/01/27 03:29:58;;;;;;;;;;;5.10;99.90;;;;;;4950727;28;19911;-82
2023/01/27 03:32:25;;;;;;;;;;;5.10;99.90;;;;;;4936276;29;19910;-83
2023/01/27 03:34:50;;;;;;;;;;;5.00;99.90;;;;;;4936167;29;20005;-82
2023/01/27 03:48:13;;;;;;;;;;;5.10;99.90;;;;;;4936161;29;19918;-81
2023/01/27 03:50:42;;;;;;;;;;;5.10;99.90;;;;;;4950482;28;19911;-82
2023/01/27 03:53:08;;;;;;;;;;;5.10;99.90;;;;;;4950350;29;19912;-82
2023/01/27 03:55:34;;;;;;;;;;;5.10;99.90;;;;;;4950397;29;19917;-81
2023/01/27 03:58:18;;;;;;;;;;;5.00;99.90;;;;;;4936018;29;19914;-82
2023/01/27 04:01:04;;;;;;;;;;;5.10;99.90;;;;;;4934507;29;19911;-82
2023/01/27 04:09:00;;;;;;;;;;;5.20;99.90;;;;;;4936346;29;19917;-82
2023/01/27 04:14:10;;;;;;;;;;;5.30;99.90;;;;;;4936096;29;19930;-82
2023/01/27 04:16:36;;;;;;;;;;;5.40;99.90;;;;;;4950332;29;19918;-81
2023/01/27 04:19:02;;;;;;;;;;;5.30;99.90;;;;;;4950392;29;19915;-82
2023/01/27 04:21:28;;;;;;;;;;;5.20;99.90;;;;;;4935641;29;19917;-82
2023/01/27 04:23:54;;;;;;;;;;;5.00;99.90;;;;;;4935834;29;20288;-82
2023/01/27 04:26:20;;;;;;;;;;;5.00;99.90;;;;;;4936257;29;20002;-82
2023/01/27 04:28:45;;;;;;;;;;;4.90;99.90;;;;;;4935861;29;19910;-82
2023/01/27 04:31:11;;;;;;;;;;;5.00;99.90;;;;;;4935614;29;19914;-83
2023/01/27 04:33:37;;;;;;;;;;;5.00;99.90;;;;;;4935538;29;20372;-82
2023/01/27 04:36:02;;;;;;;;;;;5.00;99.90;;;;;;4935917;29;19911;-83
2023/01/27 04:38:28;;;;;;;;;;;5.10;99.90;;;;;;4935419;29;19911;-82
2023/01/27 04:40:53;;;;;;;;;;;5.00;99.90;;;;;;4935757;29;19911;-82
2023/01/27 04:43:19;;;;;;;;;;;5.10;99.90;;;;;;4935602;29;19950;-83
2023/01/27 04:45:44;;;;;;;;;;;5.10;99.90;;;;;;4950325;29;19915;-82
2023/01/27 04:48:09;;;;;;;;;;;4.90;99.90;;;;;;4935832;29;19911;-81
2023/01/27 04:50:35;;;;;;;;;;;4.80;99.90;;;;;;4950445;28;20369;-82
2023/01/27 04:53:00;;;;;;;;;;;4.80;99.90;;;;;;4935419;29;20009;-82
2023/01/27 04:55:26;;;;;;;;;;;4.70;99.90;;;;;;4934303;29;19930;-82
2023/01/27 04:57:51;;;;;;;;;;;4.70;99.90;;;;;;4935673;29;19921;-81
2023/01/27 05:00:17;;;;;;;;;;;4.70;99.90;;;;;;4935511;29;19911;-81
2023/01/27 05:02:43;;;;;;;;;;;4.50;99.90;;;;;;4950022;29;20250;-81
2023/01/27 05:05:08;;;;;;;;;;;4.40;99.90;;;;;;4934242;29;19915;-82
2023/01/27 05:07:34;;;;;;;;;;;4.40;99.90;;;;;;4951952;23;20396;-79
2023/01/27 05:09:59;;;;;;;;;;;4.40;99.90;;;;;;4945169;29;19926;-80
2023/01/27 05:12:25;;;;;;;;;;;4.40;99.90;;;;;;4953088;29;19964;-79
2023/01/27 05:14:50;;;;;;;;;;;4.30;99.90;;;;;;4961341;29;20451;-79
2023/01/27 05:17:16;;;;;;;;;;;4.20;99.90;;;;;;4961096;28;19918;-80
2023/01/27 05:19:41;;;;;;;;;;;4.30;99.90;;;;;;4960742;29;20372;-80
2023/01/27 05:22:07;;;;;;;;;;;4.40;99.90;;;;;;4960396;29;19917;-80
2023/01/27 05:24:33;;;;;;;;;;;4.40;99.90;;;;;;4960586;29;19919;-80
2023/01/27 05:26:58;;;;;;;;;;;4.50;99.90;;;;;;4962459;28;19965;-80
2023/01/27 05:29:24;;;;;;;;;;;4.50;99.90;;;;;;4962501;29;19914;-80
2023/01/27 05:31:49;;;;;;;;;;;4.60;99.90;;;;;;4960447;29;19911;-80
2023/01/27 05:34:15;;;;;;;;;;;4.50;99.90;;;;;;4960551;29;19980;-79
2023/01/27 05:36:41;;;;;;;;;;;4.50;99.90;;;;;;4961448;29;20009;-80
2023/01/27 05:39:08;;;;;;;;;;;4.60;99.90;;;;;;4961303;28;20012;-80
2023/01/27 05:41:34;;;;;;;;;;;4.70;99.90;;;;;;4959989;29;19915;-80
2023/01/27 05:43:59;;;;;;;;;;;4.60;99.90;;;;;;4960381;29;19933;-80
2023/01/27 05:46:26;;;;;;;;;;;4.60;99.90;;;;;;4961119;29;20368;-79
2023/01/27 05:48:53;;;;;;;;;;;4.70;99.90;;;;;;4961130;28;19974;-79
2023/01/27 05:51:19;;;;;;;;;;;4.70;99.90;;;;;;4961181;29;19918;-79
2023/01/27 05:53:45;;;;;;;;;;;4.70;99.90;;;;;;4960665;29;20273;-80
2023/01/27 05:56:12;;;;;;;;;;;4.70;99.90;;;;;;4959534;29;19911;-79
2023/01/27 05:58:38;;;;;;;;;;;4.80;99.90;;;;;;4960479;28;19910;-80
2023/01/27 06:01:08;;;;;;;;;;;4.80;99.90;;;;;;4959227;29;19953;-79
2023/01/27 06:03:33;;;;;;;;;;;4.80;99.90;;;;;;4959269;29;19914;-80
2023/01/27 06:05:59;;;;;;;;;;;4.80;99.90;;;;;;4960547;29;19921;-79
2023/01/27 06:08:25;;;;;;;;;;;4.80;99.90;;;;;;4960662;28;19922;-79
2023/01/27 06:10:51;;;;;;;;;;;4.90;99.90;;;;;;4959009;29;19910;-79
2023/01/27 06:13:17;;;;;;;;;;;5.10;99.90;;;;;;4960330;28;19910;-80
2023/01/27 06:15:43;;;;;;;;;;;5.10;99.90;;;;;;4959368;29;20392;-79
2023/01/27 06:18:09;;;;;;;;;;;5.20;99.90;;;;;;4958980;28;20385;-79
2023/01/27 06:20:35;;;;;;;;;;;5.20;99.90;;;;;;4959772;29;19914;-80
2023/01/27 06:23:01;;;;;;;;;;;5.20;99.90;;;;;;4957550;29;20349;-80
2023/01/27 06:25:26;;;;;;;;;;;5.20;99.90;;;;;;4958029;29;19914;-80
2023/01/27 06:27:55;;;;;;;;;;;5.20;99.90;;;;;;4959692;28;19910;-80
2023/01/27 06:30:21;;;;;;;;;;;5.10;99.90;;;;;;4959394;29;19956;-80
2023/01/27 06:32:46;;;;;;;;;;;5.20;99.90;;;;;;4959253;29;19950;-79
2023/01/27 06:35:12;;;;;;;;;;;5.30;99.90;;;;;;4957936;29;20381;-80
2023/01/27 06:37:37;;;;;;;;;;;5.30;99.90;;;;;;4959352;28;19917;-80
2023/01/27 06:40:03;;;;;;;;;;;5.40;99.90;;;;;;4959172;29;19917;-79
2023/01/27 06:42:29;;;;;;;;;;;5.40;99.90;;;;;;4957307;29;19910;-79
2023/01/27 06:44:54;;;;;;;;;;;5.40;99.90;;;;;;4957662;29;19925;-79
2023/01/27 06:47:20;;;;;;;;;;;5.50;99.90;;;;;;4957782;28;19910;-79
2023/01/27 06:49:45;;;;;;;;;;;5.50;99.90;;;;;;4959273;29;19918;-80
2023/01/27 06:52:11;;;;;;;;;;;5.50;99.90;;;;;;4956889;29;20049;-79
2023/01/27 06:54:36;;;;;;;;;;;5.50;99.90;;;;;;4957476;29;19914;-80
2023/01/27 06:57:02;;;;;;;;;;;5.60;99.90;;;;;;4958587;28;19958;-79
2023/01/27 06:59:27;;;;;;;;;;;5.50;99.90;;;;;;4957318;29;19910;-79
2023/01/27 07:01:53;;;;;;;;;;;5.50;99.90;;;;;;4956896;29;19918;-79
2023/01/27 07:04:18;;;;;;;;;;;5.50;99.90;;;;;;4957363;29;19961;-80
2023/01/27 07:06:47;;;;;;;;;;;5.60;99.90;;;;;;4956935;29;19942;-80
2023/01/27 07:09:12;;;;;;;;;;;5.60;99.90;;;;;;4958282;29;19918;-79
2023/01/27 07:11:37;;;;;;;;;;;5.60;99.90;;;;;;4956823;29;19950;-80
2023/01/27 07:14:03;;;;;;;;;;;5.70;99.90;;;;;;4957641;29;19917;-79
2023/01/27 07:16:28;;;;;;;;;;;5.60;99.90;;;;;;4954032;29;20284;-79
2023/01/27 07:18:54;;;;;;;;;;;5.60;99.90;;;;;;4953739;28;19968;-79
2023/01/27 07:21:19;;;;;;;;;;;5.60;99.90;;;;;;4954773;29;19910;-79
2023/01/27 07:23:45;;;;;;;;;;;5.50;99.90;;;;;;4953701;29;19917;-79
2023/01/27 07:26:10;;;;;;;;;;;5.40;99.90;;;;;;4953757;29;20288;-79
2023/01/27 07:28:36;;;;;;;;;;;5.50;99.90;;;;;;4953713;28;19910;-79
2023/01/27 07:31:02;;;;;;;;;;;5.50;99.90;;;;;;4954233;28;19910;-79
2023/01/27 07:33:27;;;;;;;;;;;5.40;99.90;;;;;;4953661;29;19917;-78
2023/01/27 07:35:54;;;;;;;;;;;5.40;99.90;;;;;;4953738;29;20014;-79
2023/01/27 07:38:19;;;;;;;;;;;5.50;99.90;;;;;;4953483;28;20001;-78
2023/01/27 07:40:45;;;;;;;;;;;5.40;99.90;;;;;;4953787;29;20380;-79
2023/01/27 07:43:10;;;;;;;;;;;5.40;99.90;;;;;;4954665;29;19918;-79
2023/01/27 07:45:36;;;;;;;;;;;5.50;99.90;;;;;;4953580;29;19950;-78
2023/01/27 07:48:03;;;;;;;;;;;5.60;99.90;;;;;;4953476;28;19910;-79
2023/01/27 07:50:28;;;;;;;;;;;5.60;99.90;;;;;;4953600;28;19960;-79
2023/01/27 07:52:54;;;;;;;;;;;5.60;99.90;;;;;;4953393;29;19958;-79
2023/01/27 07:55:19;;;;;;;;;;;5.70;99.90;;;;;;4953448;29;19911;-79
2023/01/27 07:57:44;;;;;;;;;;;5.80;99.90;;;;;;4953530;28;20663;-79
2023/01/27 08:00:14;;;;;;;;;;;5.80;99.90;;;;;;4954855;29;19914;-79
2023/01/27 08:02:39;;;;;;;;;;;5.80;99.90;;;;;;4953175;29;19911;-79
2023/01/27 08:05:06;;;;;;;;;;;5.70;99.90;;;;;;4953715;29;19915;-79
2023/01/27 08:07:31;;;;;;;;;;;5.80;99.90;;;;;;4953358;28;20005;-79
2023/01/27 08:09:57;;;;;;;;;;;5.90;99.90;;;;;;4953835;29;20411;-79
2023/01/27 08:12:22;;;;;;;;;;;5.90;99.90;;;;;;4954812;29;19911;-79
2023/01/27 08:14:48;;;;;;;;;;;6.00;99.90;;;;;;4954722;29;19962;-79
2023/01/27 08:17:13;;;;;;;;;;;6.10;99.90;;;;;;4955451;28;19910;-79
2023/01/27 08:19:39;;;;;;;;;;;6.10;99.90;;;;;;4954902;29;19907;-79
2023/01/27 08:22:04;;;;;;;;;;;6.10;99.90;;;;;;4954511;29;19917;-79
2023/01/27 08:24:29;;;;;;;;;;;6.20;99.90;;;;;;4953460;29;19922;-78
2023/01/27 08:26:55;;;;;;;;;;;6.30;99.90;;;;;;4954476;28;20382;-79
2023/01/27 08:29:20;;;;;;;;;;;6.40;99.90;;;;;;4954239;29;19937;-79
2023/01/27 08:31:46;;;;;;;;;;;6.50;99.90;;;;;;4954567;29;19910;-79
2023/01/27 08:34:12;;;;;;;;;;;6.50;99.90;;;;;;4953604;29;19910;-79
2023/01/27 08:36:40;;;;;;;;;;;6.40;99.90;;;;;;4953055;29;19911;-79
2023/01/27 08:39:06;;;;;;;;;;;6.50;99.90;;;;;;4930969;29;20373;-79
2023/01/27 08:41:31;;;;;;;;;;;6.60;99.90;;;;;;4932330;29;19926;-79
2023/01/27 08:43:57;;;;;;;;;;;6.80;99.90;;;;;;4939870;29;19913;-79
2023/01/27 08:46:22;;;;;;;;;;;6.80;99.90;;;;;;4938155;29;19915;-80
2023/01/27 08:48:50;;;;;;;;;;;6.80;99.90;;;;;;4938426;29;19954;-80
2023/01/27 08:51:16;;;;;;;;;;;6.80;99.90;;;;;;4937428;29;19911;-79
2023/01/27 08:53:41;;;;;;;;;;;6.80;99.90;;;;;;4937152;29;19911;-79
2023/01/27 08:56:10;;;;;;;;;;;6.80;99.90;;;;;;4939806;29;19911;-79
2023/01/27 08:58:36;;;;;;;;;;;6.90;99.90;;;;;;4939077;29;19915;-79
2023/01/27 09:01:04;;;;;;;;;;;6.80;99.90;;;;;;4931155;29;19918;-80
2023/01/27 09:03:29;;;;;;;;;;;6.80;99.90;;;;;;4943935;29;20368;-80
2023/01/27 09:05:55;;;;;;;;;;;6.90;99.90;;;;;;4951320;29;19915;-80
2023/01/27 09:08:21;;;;;;;;;;;6.90;99.90;;;;;;4977961;23;20462;-80
2023/01/27 09:10:46;;;;;;;;;;;7.00;99.90;;;;;;4975505;28;19910;-79
2023/01/27 09:13:12;;;;;;;;;;;6.90;99.90;;;;;;4976021;28;19910;-80
2023/01/27 09:15:37;;;;;;;;;;;7.00;99.90;;;;;;4976455;28;20053;-80
2023/01/27 09:18:03;;;;;;;;;;;7.20;99.90;;;;;;4978078;28;20279;-79
2023/01/27 09:20:29;;;;;;;;;;;7.30;99.90;;;;;;4976939;28;19910;-80
2023/01/27 09:22:55;;;;;;;;;;;7.30;99.90;;;;;;4975826;28;19917;-80
2023/01/27 09:25:21;;;;;;;;;;;7.30;99.90;;;;;;4976524;28;20071;-80
2023/01/27 09:27:46;;;;;;;;;;;7.50;99.90;;;;;;4976133;28;20287;-80
2023/01/27 09:30:13;;;;;;;;;;;7.50;99.90;;;;;;4976209;28;19921;-79
2023/01/27 09:32:38;;;;;;;;;;;7.70;99.90;;;;;;4976256;28;20280;-80
2023/01/27 09:35:04;;;;;;;;;;;8.00;99.90;;;;;;4975902;28;19910;-80
2023/01/27 09:37:32;;;;;;;;;;;8.20;99.90;;;;;;4977684;28;19918;-80
2023/01/27 09:40:00;;;;;;;;;;;8.40;99.90;;;;;;4973132;28;20296;-80
2023/01/27 09:42:44;;;;;;;;;;;8.60;99.90;;;;;;4975355;28;19917;-81
2023/01/27 09:45:22;;;;;;;;;;;8.80;99.90;;;;;;4976967;28;20013;-80
2023/01/27 09:47:47;;;;;;;;;;;8.90;99.90;;;;;;4977002;28;20001;-80
2023/01/27 09:50:15;;;;;;;;;;;9.00;99.90;;;;;;4976563;28;19969;-80
2023/01/27 09:53:00;;;;;;;;;;;9.00;99.90;;;;;;4960544;28;19911;-80
2023/01/27 09:55:25;;;;;;;;;;;9.00;99.90;;;;;;4957276;28;19911;-80
2023/01/27 09:58:09;;;;;;;;;;;8.70;99.90;;;;;;4958050;28;19965;-81
2023/01/27 10:00:54;;;;;;;;;;;8.60;99.90;;;;;;4976488;28;19954;-80
2023/01/27 10:03:25;;;;;;;;;;;8.60;99.90;;;;;;4980909;28;19910;-80
2023/01/27 10:06:18;;;;;;;;;;;8.70;99.90;;;;;;4980217;28;20348;-80
2023/01/27 10:08:47;;;;;;;;;;;8.60;99.90;;;;;;4984395;28;19918;-80
2023/01/27 10:11:16;;;;;;;;;;;8.60;99.90;;;;;;4983296;28;19960;-80
2023/01/27 10:13:41;;;;;;;;;;;8.50;99.90;;;;;;4981560;28;19910;-80
2023/01/27 10:16:13;;;;;;;;;;;8.30;99.90;;;;;;4982458;28;19917;-80
2023/01/27 10:18:42;;;;;;;;;;;8.20;99.90;;;;;;4978770;28;20296;-80
2023/01/27 10:21:15;;;;;;;;;;;8.00;99.90;;;;;;4978541;28;19917;-80
2023/01/27 10:24:03;;;;;;;;;;;8.10;99.90;;;;;;4978290;28;19918;-81
2023/01/27 10:26:46;;;;;;;;;;;7.90;99.90;;;;;;4960400;28;19915;-80
2023/01/27 10:29:17;;;;;;;;;;;7.90;99.90;;;;;;4978685;28;19917;-80
2023/01/27 10:31:49;;;;;;;;;;;8.00;99.90;;;;;;4978946;28;19910;-80
2023/01/27 10:34:21;;;;;;;;;;;8.00;99.90;;;;;;4979263;28;19916;-80
2023/01/27 10:36:54;;;;;;;;;;;8.00;99.90;;;;;;4979054;28;19910;-80
2023/01/27 10:39:42;;;;;;;;;;;8.00;99.90;;;;;;4977763;28;19950;-79
2023/01/27 10:42:16;;;;;;;;;;;8.10;99.90;;;;;;4978422;28;19910;-80
2023/01/27 10:44:47;;;;;;;;;;;8.00;99.90;;;;;;4978599;28;20061;-81
2023/01/27 10:47:29;;;;;;;;;;;8.00;99.90;;;;;;4977110;28;19911;-80
2023/01/27 10:49:58;;;;;;;;;;;8.10;99.90;;;;;;4977879;28;20272;-80
2023/01/27 10:52:34;;;;;;;;;;;8.10;99.90;;;;;;4977343;28;19917;-80
2023/01/27 10:55:04;;;;;;;;;;;8.10;99.90;;;;;;4978654;28;19914;-80
2023/01/27 10:57:33;;;;;;;;;;;8.00;99.90;;;;;;4977275;28;19914;-80
2023/01/27 11:00:11;;;;;;;;;;;8.10;99.90;;;;;;4976942;28;20260;-80
2023/01/27 11:02:40;;;;;;;;;;;8.10;99.90;;;;;;4978375;28;19910;-80
2023/01/27 11:05:08;;;;;;;;;;;8.40;99.90;;;;;;4973822;28;19918;-80
2023/01/27 11:07:38;;;;;;;;;;;8.70;99.90;;;;;;4973254;28;20280;-80
2023/01/27 11:10:12;;;;;;;;;;;8.90;99.90;;;;;;4958568;28;20021;-79
2023/01/27 11:12:40;;;;;;;;;;;8.90;99.90;;;;;;4958672;29;20321;-80
2023/01/27 11:15:26;;;;;;;;;;;8.90;99.90;;;;;;4959127;29;19911;-80
2023/01/27 11:17:56;;;;;;;;;;;8.80;99.90;;;;;;4957504;28;19949;-80
2023/01/27 11:20:21;;;;;;;;;;;8.90;99.90;;;;;;4963309;28;19968;-80
2023/01/27 11:22:50;;;;;;;;;;;8.90;99.90;;;;;;4985454;23;19935;-78
2023/01/27 11:25:22;;;;;;;;;;;9.10;99.90;;;;;;4934200;29;19927;-78
2023/01/27 11:27:54;;;;;;;;;;;9.20;99.90;;;;;;4936603;29;20288;-78
2023/01/27 11:30:39;;;;;;;;;;;9.30;99.90;;;;;;4953968;29;20456;-79
2023/01/27 11:33:24;;;;;;;;;;;9.20;99.90;;;;;;4954129;28;19915;-79
2023/01/27 11:35:50;;;;;;;;;;;9.20;99.90;;;;;;4949159;29;19914;-79
2023/01/27 11:38:18;;;;;;;;;;;9.10;99.90;;;;;;4949996;28;19950;-79
2023/01/27 11:40:45;;;;;;;;;;;9.30;99.90;;;;;;4954317;28;19914;-80
2023/01/27 11:43:16;;;;;;;;;;;9.30;99.90;;;;;;4953792;28;19911;-82
2023/01/27 11:45:44;;;;;;;;;;;9.40;99.90;;;;;;4936538;29;19921;-82
2023/01/27 11:48:12;;;;;;;;;;;9.30;99.90;;;;;;4937677;29;20435;-83
2023/01/27 11:50:40;;;;;;;;;;;9.40;99.90;;;;;;4938055;29;19911;-83
2023/01/27 11:53:10;;;;;;;;;;;9.20;99.90;;;;;;4935340;29;19939;-83
2023/01/27 11:55:39;;;;;;;;;;;9.50;99.90;;;;;;4936803;29;20361;-83
2023/01/27 11:58:16;;;;;;;;;;;10.00;99.90;;;;;;4935315;29;20337;-83
2023/01/27 12:00:49;;;;;;;;;;;10.60;99.90;;;;;;4934956;29;19911;-83
2023/01/27 12:03:22;;;;;;;;;;;10.80;99.90;;;;;;4936421;29;19911;-83
2023/01/27 12:05:53;;;;;;;;;;;11.30;99.90;;;;;;4934838;29;19919;-83
2023/01/27 12:08:36;;;;;;;;;;;12.30;99.90;;;;;;4934444;29;19915;-83
2023/01/27 12:11:18;;;;;;;;;;;12.70;99.90;;;;;;4934230;29;20002;-83
2023/01/27 12:13:48;;;;;;;;;;;12.80;99.90;;;;;;4930801;29;19994;-83
2023/01/27 12:16:13;;;;;;;;;;;12.70;99.90;;;;;;4936264;29;20001;-84
2023/01/27 12:18:47;;;;;;;;;;;12.40;99.90;;;;;;4939861;29;19954;-83
2023/01/27 12:21:12;;;;;;;;;;;12.20;99.90;;;;;;4937790;29;19915;-85
2023/01/27 12:23:50;;;;;;;;;;;12.20;99.90;;;;;;4953462;28;20340;-85
2023/01/27 12:26:27;;;;;;;;;;;12.00;99.90;;;;;;4939477;29;19973;-85
2023/01/27 12:28:53;;;;;;;;;;;11.70;99.90;;;;;;4937781;29;19915;-85
2023/01/27 12:31:28;;;;;;;;;;;11.50;99.90;;;;;;4938972;29;19911;-85
2023/01/27 12:34:06;;;;;;;;;;;11.30;99.90;;;;;;4938720;29;19958;-84
2023/01/27 12:36:39;;;;;;;;;;;10.90;99.90;;;;;;4953589;29;19961;-84
2023/01/27 12:39:06;;;;;;;;;;;10.50;99.90;;;;;;4954130;28;20288;-84
2023/01/27 12:41:32;;;;;;;;;;;10.40;99.90;;;;;;4938002;29;19910;-84
2023/01/27 12:44:07;;;;;;;;;;;10.20;99.90;;;;;;4934229;29;19922;-84
2023/01/27 12:46:32;;;;;;;;;;;10.10;99.90;;;;;;4934651;29;19945;-84
2023/01/27 12:49:08;;;;;;;;;;;10.10;99.90;;;;;;4920825;29;19917;-84
2023/01/27 12:51:39;;;;;;;;;;;10.20;99.90;;;;;;4919387;29;19911;-84
2023/01/27 12:54:26;;;;;;;;;;;10.00;99.90;;;;;;4919446;29;19933;-84
2023/01/27 12:56:53;;;;;;;;;;;9.80;99.90;;;;;;4919762;29;19917;-84
2023/01/27 12:59:20;;;;;;;;;;;9.80;99.90;;;;;;4919861;29;19917;-84
2023/01/27 13:02:15;;;;;;;;;;;9.70;99.90;;;;;;4917943;29;20483;-84
2023/01/27 13:04:41;;;;;;;;;;;9.60;99.90;;;;;;4916961;29;19970;-84
2023/01/27 13:07:18;;;;;;;;;;;9.40;99.90;;;;;;4918793;29;19958;-85
2023/01/27 13:09:52;;;;;;;;;;;9.20;99.90;;;;;;4928468;29;19950;-85
2023/01/27 13:12:26;;;;;;;;;;;9.10;99.90;;;;;;4936423;29;19997;-85
2023/01/27 13:15:12;;;;;;;;;;;8.90;99.90;;;;;;4936894;29;19918;-85
2023/01/27 13:17:46;;;;;;;;;;;8.80;99.90;;;;;;4936175;29;20353;-85
2023/01/27 13:20:18;;;;;;;;;;;8.70;99.90;;;;;;4936803;29;19911;-85
2023/01/27 13:22:50;;;;;;;;;;;8.60;99.90;;;;;;4936055;29;19966;-84
2023/01/27 13:25:18;;;;;;;;;;;8.40;99.90;;;;;;4936410;29;19914;-85
2023/01/27 13:27:44;;;;;;;;;;;8.40;99.90;;;;;;4937258;29;20599;-85
2023/01/27 13:30:30;;;;;;;;;;;8.20;99.90;;;;;;4936027;29;19915;-85
2023/01/27 13:32:59;;;;;;;;;;;8.20;99.90;;;;;;4935689;29;19917;-85
2023/01/27 13:35:29;;;;;;;;;;;8.00;99.90;;;;;;4936109;29;19922;-85
2023/01/27 13:38:03;;;;;;;;;;;8.00;99.90;;;;;;4936322;29;19910;-84
2023/01/27 13:40:30;;;;;;;;;;;8.00;99.90;;;;;;4938071;29;20005;-85
2023/01/27 13:43:15;;;;;;;;;;;7.90;99.90;;;;;;4935708;29;19917;-85
2023/01/27 13:45:56;;;;;;;;;;;7.90;99.90;;;;;;4936086;29;19922;-85
2023/01/27 13:48:31;;;;;;;;;;;7.80;99.90;;;;;;4936634;29;20361;-84
2023/01/27 13:51:02;;;;;;;;;;;7.70;99.90;;;;;;4935789;29;19918;-86
2023/01/27 13:53:28;;;;;;;;;;;7.70;99.90;;;;;;4937723;29;19958;-84
2023/01/27 13:56:12;;;;;;;;;;;7.60;99.90;;;;;;4936686;29;20362;-85
2023/01/27 13:58:56;;;;;;;;;;;7.60;99.90;;;;;;4937824;29;19910;-85
2023/01/27 14:01:40;;;;;;;;;;;7.60;99.90;;;;;;4936402;29;19956;-85
2023/01/27 14:04:06;;;;;;;;;;;7.60;99.90;;;;;;4938390;29;19911;-85
2023/01/27 14:06:40;;;;;;;;;;;7.70;99.90;;;;;;4936416;29;19914;-85
2023/01/27 14:09:14;;;;;;;;;;;7.80;99.90;;;;;;4936119;29;19918;-84
2023/01/27 14:11:52;;;;;;;;;;;7.80;99.90;;;;;;4937182;29;19941;-84
2023/01/27 14:14:36;;;;;;;;;;;7.80;99.90;;;;;;4936291;29;19918;-85
2023/01/27 14:17:25;;;;;;;;;;;7.70;99.90;;;;;;4937429;29;19942;-84
2023/01/27 14:19:57;;;;;;;;;;;7.70;99.90;;;;;;4936022;29;19911;-85
2023/01/27 14:22:23;;;;;;;;;;;7.80;99.90;;;;;;4936268;29;19911;-84
2023/01/27 14:24:55;;;;;;;;;;;7.70;99.90;;;;;;4936427;29;19973;-84
2023/01/27 14:27:30;;;;;;;;;;;7.80;99.90;;;;;;4937050;29;19921;-84
2023/01/27 14:30:06;;;;;;;;;;;7.80;99.90;;;;;;4937067;29;19919;-84
2023/01/27 14:32:41;;;;;;;;;;;7.70;99.90;;;;;;4935767;29;20332;-84
2023/01/27 14:35:25;;;;;;;;;;;7.60;99.90;;;;;;4937908;29;19911;-85
2023/01/27 14:38:06;;;;;;;;;;;7.50;99.90;;;;;;4936218;29;19911;-84
2023/01/27 14:40:37;;;;;;;;;;;7.50;99.90;;;;;;4936884;29;19958;-84
2023/01/27 14:43:02;;;;;;;;;;;7.40;99.90;;;;;;4937407;29;19911;-85
2023/01/27 14:45:51;;;;;;;;;;;7.40;99.90;;;;;;4936011;29;20579;-85
2023/01/27 14:48:25;;;;;;;;;;;7.40;99.90;;;;;;4929972;29;19911;-85
2023/01/27 14:50:58;;;;;;;;;;;7.30;99.90;;;;;;4936275;29;19911;-85
2023/01/27 14:53:42;;;;;;;;;;;7.40;99.90;;;;;;4936225;29;19911;-85
2023/01/27 14:56:22;;;;;;;;;;;7.40;99.90;;;;;;4934731;29;20293;-85
2023/01/27 14:59:02;;;;;;;;;;;7.40;99.90;;;;;;4935008;29;19914;-85
2023/01/27 15:01:43;;;;;;;;;;;7.60;99.90;;;;;;5089686;27;19916;-83
2023/01/27 15:04:24;;;;;;;;;;;7.70;99.90;;;;;;5090472;28;20364;-84
2023/01/27 15:07:08;;;;;;;;;;;7.70;99.90;;;;;;5090119;28;20319;-84
2023/01/27 15:09:49;;;;;;;;;;;7.80;99.90;;;;;;5089052;28;19908;-84
2023/01/27 15:12:42;;;;;;;;;;;7.80;99.90;;;;;;5088877;28;19908;-83
2023/01/27 15:15:11;;;;;;;;;;;7.80;99.90;;;;;;5088979;28;19909;-83